createdAt,value
2023-02-28T00:31:51.320Z,73.30
2023-02-28T00:37:21.307Z,73.30
2023-02-28T00:42:49.309Z,73.40
2023-02-28T00:48:22.165Z,74.80
2023-02-28T00:53:50.956Z,73.80
2023-02-28T01:04:49.802Z,73.70
2023-02-28T01:10:32.358Z,73.70
2023-02-28T01:16:01.303Z,73.50
2023-02-28T01:21:33.241Z,73.50
2023-02-28T01:43:44.590Z,73.90
2023-02-28T01:49:20.889Z,73.70
2023-02-28T01:54:55.778Z,73.90
2023-02-28T02:00:27.872Z,73.80
2023-02-28T02:05:57.719Z,73.90
2023-02-28T02:11:27.295Z,73.90
2023-02-28T02:17:31.840Z,74.00
2023-02-28T02:23:24.597Z,74.60
2023-02-28T02:29:33.191Z,75.30
2023-02-28T02:35:32.061Z,74.60
2023-02-28T02:41:15.601Z,75.60
2023-02-28T02:46:46.550Z,76.90
2023-02-28T02:52:19.700Z,75.80
2023-02-28T02:57:57.776Z,74.40
2023-02-28T03:15:22.454Z,74.60
2023-02-28T03:21:13.747Z,75.10
2023-02-28T03:26:52.615Z,78.30
2023-02-28T03:32:36.148Z,74.70
2023-02-28T03:38:45.530Z,78.70
2023-02-28T03:44:21.236Z,77.30
2023-02-28T03:50:20.327Z,75.30
2023-02-28T03:56:22.431Z,75.00
2023-02-28T04:01:52.847Z,74.70
2023-02-28T04:07:22.154Z,77.50
2023-02-28T04:12:49.900Z,77.70
2023-02-28T04:23:46.801Z,75.50
2023-02-28T04:29:29.102Z,75.60
2023-02-28T04:45:53.114Z,75.60
2023-02-28T04:51:21.443Z,75.60
2023-02-28T04:56:50.959Z,77.60
2023-02-28T05:35:14.535Z,76.00
2023-02-28T05:46:12.562Z,76.70
2023-02-28T05:51:41.561Z,78.20
2023-02-28T05:57:18.905Z,76.20
2023-02-28T06:02:52.541Z,78.00
2023-02-28T06:08:22.578Z,78.70
2023-02-28T06:13:54.692Z,78.80
2023-02-28T06:19:23.806Z,79.00
2023-02-28T06:41:28.775Z,76.10
2023-02-28T07:03:21.687Z,78.00
2023-02-28T07:08:51.666Z,77.80
2023-02-28T07:25:15.671Z,77.30
2023-02-28T07:36:16.387Z,78.80
2023-02-28T07:47:12.775Z,77.30
2023-02-28T07:52:41.040Z,76.50
2023-02-28T08:03:38.009Z,75.70
2023-02-28T08:14:34.175Z,78.00
2023-02-28T08:25:30.276Z,75.70
2023-02-28T08:30:58.505Z,75.70
2023-02-28T08:36:29.721Z,75.60
2023-02-28T08:53:03.336Z,77.10
2023-02-28T09:03:59.706Z,77.50
2023-02-28T09:09:27.604Z,76.10
2023-02-28T09:25:55.028Z,75.20
2023-02-28T09:31:26.827Z,75.20
2023-02-28T09:36:56.067Z,76.30
2023-02-28T09:42:32.818Z,75.00
2023-02-28T09:48:13.656Z,77.30
2023-02-28T09:53:44.010Z,75.10
2023-02-28T09:59:55.745Z,76.70
2023-02-28T10:05:40.585Z,74.80
2023-02-28T10:11:13.797Z,74.50
2023-02-28T10:17:10.016Z,74.60
2023-02-28T10:23:29.857Z,74.50
2023-02-28T10:28:57.716Z,74.30
2023-02-28T10:34:26.257Z,75.30
2023-02-28T10:39:54.387Z,75.50
2023-02-28T10:56:24.755Z,73.50
2023-02-28T11:07:27.654Z,75.70
2023-02-28T11:13:01.208Z,76.00
2023-02-28T11:18:50.492Z,75.70
2023-02-28T11:24:35.062Z,72.90
2023-02-28T11:35:43.286Z,75.00
2023-02-28T11:41:49.531Z,72.60
2023-02-28T11:59:04.972Z,72.50
2023-02-28T12:04:57.964Z,74.30
2023-02-28T12:10:39.086Z,72.40
2023-02-28T12:16:17.666Z,74.20
2023-02-28T12:22:15.867Z,72.20
2023-02-28T12:27:47.664Z,73.20
2023-02-28T12:33:18.732Z,72.00
2023-02-28T12:44:32.817Z,71.80
2023-02-28T12:56:00.445Z,71.60
2023-02-28T13:01:40.024Z,71.00
2023-02-28T13:07:21.643Z,71.80
2023-02-28T13:18:34.856Z,69.90
2023-02-28T13:24:05.553Z,69.30
2023-02-28T13:40:40.633Z,69.70
2023-02-28T13:46:14.242Z,70.10
2023-02-28T13:51:47.926Z,69.80
2023-02-28T13:57:53.732Z,70.00
2023-02-28T14:03:41.142Z,68.80
2023-02-28T14:09:28.146Z,69.10
2023-02-28T14:14:57.211Z,68.30
2023-02-28T14:20:31.273Z,66.30
2023-02-28T14:26:46.331Z,64.20
2023-02-28T14:33:13.206Z,67.10
2023-02-28T14:38:46.484Z,66.40
2023-02-28T14:44:24.489Z,63.80
2023-02-28T14:55:32.920Z,62.80
2023-02-28T15:01:04.785Z,60.50
2023-02-28T15:06:33.723Z,59.50
2023-02-28T15:23:00.165Z,60.10
2023-02-28T15:28:31.674Z,60.60
2023-02-28T15:34:07.216Z,61.80
2023-02-28T15:39:45.456Z,61.40
2023-02-28T15:45:42.274Z,62.10
2023-02-28T15:51:20.615Z,63.40
2023-02-28T15:56:54.194Z,63.60
2023-02-28T16:02:32.566Z,63.50
2023-02-28T16:08:13.344Z,63.60
2023-02-28T16:13:42.191Z,64.00
2023-02-28T16:30:11.330Z,64.30
2023-02-28T16:57:35.070Z,65.00
2023-02-28T17:36:41.481Z,65.90
2023-02-28T17:42:10.411Z,65.80
2023-02-28T17:47:38.957Z,66.60
2023-02-28T17:53:07.129Z,67.50
2023-02-28T17:58:35.266Z,66.70
2023-02-28T18:09:32.004Z,66.40
2023-02-28T18:20:34.893Z,66.90
2023-02-28T18:31:40.216Z,67.80
2023-02-28T18:42:46.055Z,67.20
2023-02-28T18:48:15.485Z,67.80
2023-02-28T18:53:46.258Z,67.50
2023-02-28T18:59:14.635Z,69.80
2023-02-28T19:04:42.865Z,69.20
2023-02-28T19:10:11.919Z,68.50
2023-02-28T19:15:41.516Z,69.40
2023-02-28T19:21:11.731Z,68.70
2023-02-28T19:26:46.590Z,68.10
2023-02-28T19:32:14.725Z,68.50
2023-02-28T19:59:41.127Z,68.90
2023-02-28T20:05:10.022Z,69.10
2023-02-28T20:10:38.560Z,71.30
2023-02-28T20:16:10.115Z,69.40
2023-02-28T20:32:39.803Z,69.70
2023-02-28T20:38:11.340Z,71.60
2023-02-28T20:43:41.235Z,70.80
2023-02-28T20:49:10.412Z,70.90
2023-02-28T20:54:40.281Z,69.90
2023-02-28T21:00:16.322Z,69.90
2023-02-28T21:11:19.511Z,70.20
2023-02-28T21:16:49.562Z,70.00
2023-02-28T21:22:17.629Z,70.80
2023-02-28T21:38:43.393Z,70.30
2023-02-28T21:44:19.519Z,70.60
2023-02-28T22:00:46.010Z,73.00
2023-02-28T22:06:24.611Z,70.70
2023-02-28T22:11:57.963Z,70.70
2023-02-28T22:17:26.810Z,70.80
2023-02-28T22:34:01.573Z,71.10
2023-02-28T22:55:57.215Z,71.30
2023-02-28T23:01:28.654Z,71.30
2023-02-28T23:06:56.703Z,71.30
2023-02-28T23:12:24.656Z,71.40
2023-02-28T23:23:24.658Z,71.60
2023-02-28T23:28:52.852Z,71.70
2023-02-28T23:34:28.417Z,71.70
2023-02-28T23:39:56.189Z,71.80
2023-02-28T23:50:52.053Z,71.90
2023-02-28T23:56:23.278Z,72.40
